Yukon, Pennsylvania
Current Conditions -  °F | °C
As of 2:50 PM on Sunday 25 Jan 2015 (Local Time) from KLBE Reporting Station
Light Snow Light Snow  
Wind Chill: 31°   Ceiling: 900
Heat Index: 36°   Visibility: 2mi
Dew Point: 34°   Wind: 6mph
Humidity: 93%   Direction: 210°SSW
Pressure: 29.79"   Gusts: NA
Location:  40.21°N, 79.68°W
Report Text: KLBE 251950Z 21005KT 2SM -SN OVC009 02/01 A2979
Loading
Personal Weather Stations






























Interactive Weather Map New forecast layout! Learn more

10-Day Weather Forecast

Advertisements
Track Severe Weather on mobile